LFRM/LME METAR and TAF weather

Enter ICAO airport designator
Station Type Date Time Source
LFRM METAR 2019/04/18 22:30 UTC NOAA

LFRM 182230Z AUTO 01002KT CAVOK 15/08 Q1020


Station Type Date Time Source
LFRM Decoded METAR 2019/04/18 22:30 UTC NOAA

Le Mans, France (LFRM) 47-56N 000-12E 52M
Apr 18, 2019 - 06:30 PM EDT / 2019.04.18 2230 UTC
Wind: from the N (010 degrees) at 2 MPH (2 KT):0
Visibility: greater than 7 mile(s):0
Temperature: 59 F (15 C)
Dew Point: 46 F (8 C)
Relative Humidity: 62%
Pressure (altimeter): 30.12 in. Hg (1020 hPa)
ob: LFRM 182230Z AUTO 01002KT CAVOK 15/08 Q1020
cycle: 22

Station Type Date Time Source
LFRM TAF 2019/04/18 21:09 UTC NOAA

TAF TAF LFRM 182100Z 1821/1918 CNL

Example: see airport list